Time;durP1;ratioP1;P1;durP2;ratioP2;P2;SDS_P1;SDS_P2;PMS_P1;PMS_P2;Temp;Humidity;BMP_temperature;BMP_pressure;BME280_temperature;BME280_humidity;BME280_pressure;Samples;Min_cycle;Max_cycle;Signal;HPM_P1;HPM_P2
2023/06/07 00:00:21;;;;;;;6.75;4.25;;;;;;;10.97;100.00;97347.13;4960407;28;20072;-64
2023/06/07 00:02:47;;;;;;;4.88;3.50;;;;;;;11.00;100.00;97343.91;4961613;28;20114;-64
2023/06/07 00:05:14;;;;;;;6.45;4.20;;;;;;;11.04;100.00;97345.03;4963011;28;20078;-64
2023/06/07 00:07:42;;;;;;;8.43;3.92;;;;;;;11.14;100.00;97339.72;4958639;28;20051;-64
2023/06/07 00:10:09;;;;;;;6.63;4.10;;;;;;;11.10;100.00;97337.78;4961091;28;20534;-63
2023/06/07 00:12:36;;;;;;;5.45;3.83;;;;;;;11.04;100.00;97336.91;4958197;28;20065;-64
2023/06/07 00:15:03;;;;;;;5.68;3.85;;;;;;;11.03;100.00;97336.06;4960997;28;20754;-64
2023/06/07 00:17:30;;;;;;;6.93;4.03;;;;;;;11.21;99.82;97334.09;4963363;28;20046;-64
2023/06/07 00:19:57;;;;;;;5.55;3.65;;;;;;;11.34;98.85;97334.72;4958522;28;20088;-64
2023/06/07 00:22:23;;;;;;;6.35;4.05;;;;;;;11.29;98.22;97340.94;4960132;28;20612;-63
2023/06/07 00:24:51;;;;;;;5.97;4.10;;;;;;;11.11;100.00;97340.25;4958236;28;20102;-64
2023/06/07 00:27:18;;;;;;;7.93;3.60;;;;;;;11.17;99.71;97339.19;4965185;28;20054;-63
2023/06/07 00:29:45;;;;;;;6.03;4.10;;;;;;;11.11;99.82;97334.81;4959571;28;20097;-64
2023/06/07 00:32:12;;;;;;;8.57;4.78;;;;;;;10.94;100.00;97337.63;4953934;28;20082;-63
2023/06/07 00:34:38;;;;;;;7.43;4.38;;;;;;;10.95;100.00;97333.03;4954169;28;20127;-64
2023/06/07 00:37:05;;;;;;;6.80;3.85;;;;;;;11.03;100.00;97336.06;4960812;28;20516;-64
2023/06/07 00:39:32;;;;;;;6.50;4.00;;;;;;;11.10;99.81;97338.59;4959177;28;20057;-64
2023/06/07 00:41:58;;;;;;;4.65;3.65;;;;;;;11.14;100.00;97338.91;4959166;28;20071;-63
2023/06/07 00:44:25;;;;;;;6.18;4.50;;;;;;;11.03;100.00;97340.69;4950820;28;20054;-64
2023/06/07 00:46:52;;;;;;;6.38;4.03;;;;;;;10.87;100.00;97340.53;4960593;28;20078;-64
2023/06/07 00:49:18;;;;;;;6.05;3.97;;;;;;;10.86;100.00;97336.19;4956880;28;20035;-63
2023/06/07 00:51:46;;;;;;;7.43;4.40;;;;;;;10.86;100.00;97338.91;4956113;28;20438;-63
2023/06/07 00:54:17;;;;;;;7.82;4.70;;;;;;;10.74;100.00;97340.94;4936583;28;20039;-64
2023/06/07 00:56:49;;;;;;;7.72;4.90;;;;;;;10.73;100.00;97331.97;4960755;28;20046;-64
2023/06/07 00:59:20;;;;;;;5.82;4.25;;;;;;;10.70;100.00;97334.38;4958895;28;20094;-64
2023/06/07 01:01:48;;;;;;;6.30;4.27;;;;;;;10.66;100.00;97325.97;4960899;28;20498;-64
2023/06/07 01:04:19;;;;;;;5.10;3.67;;;;;;;10.72;100.00;97335.75;4965299;28;20042;-64
2023/06/07 01:06:46;;;;;;;5.57;3.95;;;;;;;10.60;100.00;97335.91;4954207;28;20039;-64
2023/06/07 01:09:14;;;;;;;7.00;4.30;;;;;;;10.53;100.00;97351.53;4954797;28;20055;-64
2023/06/07 01:11:45;;;;;;;7.90;4.20;;;;;;;10.49;100.00;97344.97;4962236;28;20035;-63
2023/06/07 01:14:12;;;;;;;6.25;4.30;;;;;;;10.51;100.00;97343.66;4960575;28;20138;-63
2023/06/07 01:16:39;;;;;;;7.15;4.65;;;;;;;10.66;100.00;97339.50;4957973;28;20062;-64
2023/06/07 01:19:06;;;;;;;5.95;4.07;;;;;;;10.68;100.00;97337.34;4956279;28;20526;-64
2023/06/07 01:21:36;;;;;;;7.45;4.50;;;;;;;10.59;100.00;97342.41;4960596;28;20047;-64
2023/06/07 01:24:03;;;;;;;6.45;4.28;;;;;;;10.45;100.00;97333.00;4957366;28;20043;-63
2023/06/07 01:26:31;;;;;;;6.40;4.53;;;;;;;10.40;100.00;97337.25;4955252;28;20038;-64
2023/06/07 01:29:05;;;;;;;6.00;4.28;;;;;;;10.45;100.00;97336.53;4956562;28;20050;-64
2023/06/07 01:31:35;;;;;;;6.57;4.60;;;;;;;10.45;100.00;97338.41;4952766;28;20039;-64
2023/06/07 01:34:04;;;;;;;7.78;4.85;;;;;;;10.38;100.00;97327.75;4956166;28;20051;-65
2023/06/07 01:36:31;;;;;;;8.60;4.90;;;;;;;10.25;100.00;97327.06;4963198;28;20047;-64
2023/06/07 01:39:00;;;;;;;6.13;4.55;;;;;;;10.20;100.00;97332.41;4954812;28;20179;-64
2023/06/07 01:41:28;;;;;;;7.88;5.25;;;;;;;10.03;100.00;97343.28;4963429;28;20045;-64
2023/06/07 01:43:57;;;;;;;6.80;4.70;;;;;;;10.11;100.00;97337.44;4974310;28;20561;-64
2023/06/07 01:46:25;;;;;;;7.18;4.60;;;;;;;10.28;100.00;97333.84;4960183;28;20090;-64
2023/06/07 01:48:53;;;;;;;7.90;4.90;;;;;;;10.25;100.00;97328.97;4953564;28;20082;-63
2023/06/07 01:51:19;;;;;;;7.70;4.75;;;;;;;10.25;100.00;97320.84;4958326;28;20067;-64
2023/06/07 01:53:49;;;;;;;5.88;4.63;;;;;;;10.24;100.00;97324.59;4959393;28;20043;-64
2023/06/07 01:56:28;;;;;;;7.68;4.70;;;;;;;10.18;100.00;97320.19;4952942;28;20043;-64
2023/06/07 01:59:18;;;;;;;7.75;4.35;;;;;;;10.22;100.00;97327.56;4954176;28;20071;-64
2023/06/07 02:01:53;;;;;;;6.00;4.70;;;;;;;10.13;100.00;97323.66;4959840;28;20039;-64
2023/06/07 02:04:20;;;;;;;7.13;4.65;;;;;;;10.20;100.00;97321.59;4959905;28;20131;-64
2023/06/07 02:06:50;;;;;;;6.85;4.68;;;;;;;10.09;100.00;97315.22;4960910;28;20101;-64
2023/06/07 02:09:20;;;;;;;6.03;4.45;;;;;;;10.06;100.00;97314.91;4954795;28;20050;-64
2023/06/07 02:11:46;;;;;;;10.18;5.63;;;;;;;10.01;100.00;97313.78;4958300;28;20034;-64
2023/06/07 02:14:13;;;;;;;8.18;5.85;;;;;;;9.99;100.00;97320.50;4958249;28;20035;-64
2023/06/07 02:16:41;;;;;;;7.03;4.60;;;;;;;10.08;100.00;97312.75;4957728;28;20070;-64
2023/06/07 02:19:09;;;;;;;6.90;4.80;;;;;;;10.23;100.00;97304.03;4971528;28;20036;-64
2023/06/07 02:21:48;;;;;;;6.63;4.50;;;;;;;10.11;100.00;97306.84;4961026;28;20055;-64
2023/06/07 02:24:16;;;;;;;5.72;4.60;;;;;;;10.00;100.00;97317.53;4958104;28;20042;-64
2023/06/07 02:26:43;;;;;;;8.30;4.40;;;;;;;9.96;100.00;97310.19;4958093;28;20097;-63
2023/06/07 02:29:11;;;;;;;6.22;4.35;;;;;;;9.94;100.00;97312.28;4954052;28;20070;-64
2023/06/07 02:31:38;;;;;;;16.52;5.55;;;;;;;10.05;100.00;97319.50;4956622;28;20158;-63
2023/06/07 02:34:05;;;;;;;8.48;4.97;;;;;;;10.03;100.00;97324.34;4961173;28;20043;-64
2023/06/07 02:36:33;;;;;;;6.70;4.40;;;;;;;9.99;100.00;97321.31;4958308;28;20050;-64
2023/06/07 02:39:02;;;;;;;7.15;4.60;;;;;;;9.94;100.00;97315.00;4960531;28;20050;-63
2023/06/07 02:41:29;;;;;;;7.32;5.53;;;;;;;10.01;100.00;97321.88;4964201;28;20043;-64
2023/06/07 02:43:55;;;;;;;6.65;5.10;;;;;;;10.02;100.00;97322.69;4960758;28;20039;-63
2023/06/07 02:46:22;;;;;;;6.97;4.75;;;;;;;9.89;100.00;97315.75;4955381;28;20043;-64
2023/06/07 02:48:49;;;;;;;6.35;4.93;;;;;;;9.84;100.00;97326.53;4956508;28;20079;-63
2023/06/07 02:51:16;;;;;;;7.43;5.45;;;;;;;9.88;100.00;97323.06;4954990;28;20118;-64
2023/06/07 02:53:44;;;;;;;8.07;5.05;;;;;;;9.82;100.00;97324.06;4954077;28;20113;-64
2023/06/07 02:56:11;;;;;;;9.60;5.13;;;;;;;9.78;100.00;97324.78;4967830;28;20050;-63
2023/06/07 02:58:38;;;;;;;6.93;5.53;;;;;;;9.63;100.00;97321.59;4957356;28;20141;-64
2023/06/07 03:01:08;;;;;;;6.85;5.45;;;;;;;9.67;100.00;97324.66;4977172;28;20047;-64
2023/06/07 03:03:42;;;;;;;8.38;5.60;;;;;;;9.64;100.00;97319.72;4953217;28;20398;-63
2023/06/07 03:06:11;;;;;;;8.07;5.57;;;;;;;9.60;100.00;97326.69;4959394;28;20053;-63
2023/06/07 03:08:38;;;;;;;8.85;5.88;;;;;;;9.52;100.00;97327.09;4953877;28;20057;-63
2023/06/07 03:11:06;;;;;;;9.23;6.57;;;;;;;9.52;100.00;97333.34;4954598;28;20047;-63
2023/06/07 03:13:37;;;;;;;8.03;5.63;;;;;;;9.54;100.00;97327.69;4953779;28;20063;-64
2023/06/07 03:16:07;;;;;;;11.07;6.82;;;;;;;9.35;100.00;97326.03;4977756;28;20066;-63
2023/06/07 03:18:44;;;;;;;10.38;5.97;;;;;;;9.31;100.00;97342.97;4961128;28;20054;-64
2023/06/07 03:21:11;;;;;;;9.02;6.50;;;;;;;9.24;100.00;97338.56;4955044;28;20047;-64
2023/06/07 03:23:39;;;;;;;6.95;5.82;;;;;;;9.34;100.00;97347.91;4951258;28;20054;-64
2023/06/07 03:26:07;;;;;;;10.40;6.53;;;;;;;9.33;100.00;97338.16;4962139;28;20051;-63
2023/06/07 03:28:34;;;;;;;9.63;7.15;;;;;;;9.36;100.00;97337.66;4959035;28;20043;-54
2023/06/07 03:31:03;;;;;;;10.93;6.78;;;;;;;9.36;100.00;97335.78;4963115;28;20869;-54
2023/06/07 03:33:39;;;;;;;8.77;6.40;;;;;;;9.44;100.00;97339.94;4961346;28;20134;-55
2023/06/07 03:36:07;;;;;;;10.60;7.03;;;;;;;9.42;100.00;97339.38;4956082;28;20061;-53
2023/06/07 03:38:35;;;;;;;9.93;6.75;;;;;;;9.52;100.00;97330.63;4949209;28;20142;-55
2023/06/07 03:41:02;;;;;;;8.95;6.65;;;;;;;9.41;100.00;97332.34;4960850;28;20078;-56
2023/06/07 03:43:34;;;;;;;10.25;7.55;;;;;;;9.40;100.00;97332.59;4976781;28;20050;-54
2023/06/07 03:46:01;;;;;;;9.50;6.90;;;;;;;9.47;100.00;97333.25;4961388;28;20137;-55
2023/06/07 03:48:28;;;;;;;8.13;6.68;;;;;;;9.46;100.00;97328.91;4958596;28;20047;-55
2023/06/07 03:50:56;;;;;;;11.20;7.28;;;;;;;9.42;100.00;97334.00;4962049;28;20047;-55
2023/06/07 03:53:22;;;;;;;9.60;7.07;;;;;;;9.50;100.00;97332.75;4962111;28;20117;-55
2023/06/07 03:55:49;;;;;;;9.32;6.93;;;;;;;9.57;100.00;97329.88;4961505;28;20047;-55
2023/06/07 03:58:18;;;;;;;11.18;7.65;;;;;;;9.61;100.00;97333.72;4963829;28;20138;-56
2023/06/07 04:00:47;;;;;;;9.60;7.35;;;;;;;9.63;100.00;97334.31;4959789;28;20058;-56
2023/06/07 04:03:14;;;;;;;10.63;7.15;;;;;;;9.70;100.00;97334.16;4957899;28;20052;-56
2023/06/07 04:05:40;;;;;;;10.35;7.53;;;;;;;9.74;100.00;97324.47;4949699;28;20130;-55
2023/06/07 04:08:09;;;;;;;9.20;6.70;;;;;;;9.74;100.00;97330.69;4976123;28;20050;-54
2023/06/07 04:10:36;;;;;;;8.25;6.05;;;;;;;9.87;100.00;97328.69;4959524;28;20054;-55
2023/06/07 04:13:02;;;;;;;8.70;6.53;;;;;;;9.88;100.00;97324.97;4960878;28;20102;-55
2023/06/07 04:15:31;;;;;;;9.07;6.55;;;;;;;9.85;100.00;97325.44;4956726;28;20039;-55
2023/06/07 04:17:57;;;;;;;8.68;6.15;;;;;;;9.86;100.00;97324.38;4961397;28;20035;-55
2023/06/07 04:20:24;;;;;;;8.57;6.65;;;;;;;9.87;100.00;97324.13;4978868;28;20534;-55
2023/06/07 04:22:52;;;;;;;9.02;6.70;;;;;;;9.91;100.00;97321.72;4962810;28;20675;-55
2023/06/07 04:25:25;;;;;;;9.52;6.55;;;;;;;10.00;100.00;97327.53;4955323;28;20039;-56
2023/06/07 04:27:59;;;;;;;7.57;6.05;;;;;;;10.01;100.00;97332.72;4974609;28;20055;-55
2023/06/07 04:30:34;;;;;;;11.43;6.75;;;;;;;10.10;100.00;97321.47;4960806;28;20801;-54
2023/06/07 04:33:08;;;;;;;9.15;6.60;;;;;;;10.22;100.00;97332.16;4960085;28;20501;-55
2023/06/07 04:35:42;;;;;;;9.43;6.80;;;;;;;10.33;100.00;97320.41;4962130;28;20038;-53
2023/06/07 04:38:15;;;;;;;10.80;6.32;;;;;;;10.46;100.00;97323.84;4951411;28;20043;-54
2023/06/07 04:40:49;;;;;;;12.90;7.13;;;;;;;10.51;100.00;97327.41;4957411;28;20047;-55
2023/06/07 04:43:23;;;;;;;7.80;6.30;;;;;;;10.60;100.00;97321.53;4950708;28;20605;-55
2023/06/07 04:45:56;;;;;;;10.75;6.85;;;;;;;10.70;100.00;97321.66;4960261;28;20039;-54
2023/06/07 04:48:27;;;;;;;8.55;6.30;;;;;;;10.82;100.00;97320.69;4976542;28;20070;-64
2023/06/07 04:51:03;;;;;;;8.45;6.43;;;;;;;11.00;100.00;97314.94;4961639;28;20057;-64
2023/06/07 04:53:36;;;;;;;11.98;6.72;;;;;;;11.10;100.00;97319.63;4962377;28;20046;-64
2023/06/07 04:56:04;;;;;;;9.18;6.15;;;;;;;11.15;100.00;97321.56;4957164;28;20655;-64
2023/06/07 04:58:31;;;;;;;8.35;6.70;;;;;;;11.26;100.00;97330.59;4952497;28;20067;-64
2023/06/07 05:01:00;;;;;;;9.70;6.32;;;;;;;11.35;100.00;97320.13;4958622;28;20053;-64
2023/06/07 05:03:27;;;;;;;7.82;6.50;;;;;;;11.52;100.00;97325.41;4957906;28;20066;-64
2023/06/07 05:05:55;;;;;;;9.30;6.90;;;;;;;11.56;100.00;97316.50;4953660;28;20522;-64
2023/06/07 05:08:23;;;;;;;7.80;6.00;;;;;;;11.69;100.00;97330.69;4957301;28;20076;-64
2023/06/07 05:10:50;;;;;;;8.82;6.47;;;;;;;11.81;100.00;97327.78;4957226;28;20063;-64
2023/06/07 05:13:17;;;;;;;8.02;6.57;;;;;;;11.93;100.00;97325.69;4957655;28;20110;-64
2023/06/07 05:15:44;;;;;;;9.35;6.45;;;;;;;12.02;100.00;97336.84;4963503;28;20077;-64
2023/06/07 05:18:12;;;;;;;8.13;6.35;;;;;;;12.09;100.00;97337.47;4960080;28;20533;-64
2023/06/07 05:20:39;;;;;;;8.82;5.95;;;;;;;12.21;100.00;97339.97;4957169;28;20410;-64
2023/06/07 05:23:06;;;;;;;8.50;6.30;;;;;;;12.34;100.00;97335.16;4964596;28;20041;-64
2023/06/07 05:25:36;;;;;;;7.63;6.13;;;;;;;12.49;100.00;97346.09;4978564;28;20134;-64
2023/06/07 05:28:03;;;;;;;9.20;5.75;;;;;;;12.64;100.00;97341.78;4957960;28;20043;-64
2023/06/07 05:30:43;;;;;;;8.57;7.00;;;;;;;12.89;100.00;97337.53;4950327;28;20051;-64
2023/06/07 05:33:11;;;;;;;9.02;6.50;;;;;;;13.21;98.72;97341.94;4958267;28;20039;-65
2023/06/07 05:35:37;;;;;;;9.57;7.40;;;;;;;13.44;97.68;97347.13;4974225;28;20054;-64
2023/06/07 05:38:04;;;;;;;8.90;6.35;;;;;;;13.62;96.22;97352.06;4958602;28;20693;-64
2023/06/07 05:40:30;;;;;;;8.95;7.07;;;;;;;13.74;95.72;97350.94;4978337;28;20542;-64
2023/06/07 05:42:57;;;;;;;8.52;5.78;;;;;;;13.82;95.11;97342.25;4955957;28;20130;-64
2023/06/07 05:45:25;;;;;;;7.25;5.93;;;;;;;13.93;95.31;97347.69;4950383;28;20078;-64
2023/06/07 05:47:51;;;;;;;8.52;6.80;;;;;;;14.01;94.53;97350.66;4957777;28;20506;-64
2023/06/07 05:50:20;;;;;;;8.57;6.53;;;;;;;14.10;94.53;97342.75;4955738;28;20047;-64
2023/06/07 05:52:56;;;;;;;8.15;6.30;;;;;;;14.20;93.25;97344.63;4973834;28;20039;-64
2023/06/07 05:55:26;;;;;;;8.88;7.10;;;;;;;14.24;93.54;97350.34;4954680;28;20078;-65
2023/06/07 05:57:54;;;;;;;8.30;7.03;;;;;;;14.28;93.53;97346.78;4958738;28;20137;-64
2023/06/07 06:00:22;;;;;;;7.50;6.55;;;;;;;14.36;94.69;97348.13;4955710;28;20543;-64
2023/06/07 06:02:49;;;;;;;6.78;5.72;;;;;;;14.43;93.24;97347.84;4955833;28;20042;-61
2023/06/07 06:05:17;;;;;;;10.25;6.50;;;;;;;14.56;91.99;97346.44;4957176;28;20043;-60
2023/06/07 06:07:43;;;;;;;8.93;7.28;;;;;;;14.72;93.34;97346.34;4956607;28;20729;-60
2023/06/07 06:10:11;;;;;;;7.97;6.30;;;;;;;14.81;89.98;97345.53;4956168;28;20529;-60
2023/06/07 06:12:37;;;;;;;6.93;5.57;;;;;;;14.87;89.82;97348.22;4948579;28;20043;-60
2023/06/07 06:15:05;;;;;;;10.75;7.40;;;;;;;14.83;90.54;97348.75;4951792;28;20573;-60
2023/06/07 06:17:31;;;;;;;8.60;7.22;;;;;;;14.85;89.50;97348.50;4955696;28;20047;-62
2023/06/07 06:19:58;;;;;;;8.32;7.20;;;;;;;14.98;90.43;97348.97;4956377;28;20054;-62
2023/06/07 06:22:25;;;;;;;8.82;7.20;;;;;;;15.08;90.32;97355.19;4954832;28;20047;-62
2023/06/07 06:24:52;;;;;;;8.73;6.68;;;;;;;14.93;90.59;97349.84;4955229;28;20071;-62
2023/06/07 06:27:20;;;;;;;10.95;7.10;;;;;;;14.92;91.71;97343.56;4956885;28;20129;-62
2023/06/07 06:29:47;;;;;;;9.75;7.25;;;;;;;14.93;91.22;97347.09;4954520;28;20055;-62
2023/06/07 06:32:13;;;;;;;8.15;6.82;;;;;;;15.01;90.19;97345.69;4950156;28;20051;-62
2023/06/07 06:34:40;;;;;;;10.13;6.97;;;;;;;15.11;90.05;97342.88;4950979;28;20042;-63
2023/06/07 06:37:06;;;;;;;8.05;6.18;;;;;;;15.12;90.30;97341.00;4954161;28;20045;-61
2023/06/07 06:39:33;;;;;;;11.98;6.40;;;;;;;15.27;89.43;97346.34;4959701;28;20091;-62
2023/06/07 06:41:59;;;;;;;7.97;6.20;;;;;;;15.39;88.87;97351.44;4958940;28;20065;-67
2023/06/07 06:44:45;;;;;;;7.63;6.35;;;;;;;15.55;88.43;97345.88;4956053;28;20454;-67
2023/06/07 06:47:14;;;;;;;8.50;6.32;;;;;;;15.62;87.40;97353.75;4953997;28;20421;-67
2023/06/07 06:49:41;;;;;;;7.25;5.68;;;;;;;15.68;87.56;97350.69;4952863;28;20049;-67
2023/06/07 06:52:08;;;;;;;9.75;5.82;;;;;;;15.69;87.18;97346.84;4951426;28;20054;-67
2023/06/07 06:54:34;;;;;;;7.57;5.47;;;;;;;15.79;87.15;97356.03;4955335;28;20044;-66
2023/06/07 06:57:01;;;;;;;7.00;5.35;;;;;;;15.85;85.87;97352.19;4954387;28;20057;-66
2023/06/07 06:59:27;;;;;;;8.85;5.72;;;;;;;15.95;86.84;97360.28;4958144;28;20473;-67
2023/06/07 07:01:56;;;;;;;6.38;4.80;;;;;;;16.02;85.14;97354.50;4958232;28;20462;-66
2023/06/07 07:04:23;;;;;;;6.53;5.50;;;;;;;16.22;85.55;97367.13;4965890;28;20049;-66
2023/06/07 07:06:49;;;;;;;7.72;4.63;;;;;;;16.31;84.30;97363.75;4965164;28;20044;-66
2023/06/07 07:09:16;;;;;;;7.82;5.00;;;;;;;16.42;83.30;97361.72;4964090;28;20121;-66
2023/06/07 07:11:42;;;;;;;6.03;4.47;;;;;;;16.30;84.40;97353.94;4963214;28;20098;-65
2023/06/07 07:14:09;;;;;;;7.18;5.00;;;;;;;16.16;84.55;97357.38;4956909;28;20050;-66
2023/06/07 07:16:36;;;;;;;7.55;4.45;;;;;;;16.35;84.48;97351.16;4966237;28;20051;-66
2023/06/07 07:19:04;;;;;;;6.07;4.68;;;;;;;16.42;83.86;97356.25;4953862;28;20663;-66
2023/06/07 07:21:31;;;;;;;5.93;4.55;;;;;;;16.54;84.90;97356.66;4965233;28;20043;-65
2023/06/07 07:23:57;;;;;;;6.60;4.50;;;;;;;16.57;82.41;97358.81;4958549;28;20106;-66
2023/06/07 07:26:25;;;;;;;5.70;4.05;;;;;;;16.66;82.37;97353.50;4964632;28;20051;-66
2023/06/07 07:28:53;;;;;;;5.72;4.13;;;;;;;16.73;83.08;97362.19;4961314;28;20577;-66
2023/06/07 07:31:20;;;;;;;5.50;3.58;;;;;;;16.88;82.20;97358.44;4962803;28;20593;-65
2023/06/07 07:33:47;;;;;;;6.55;3.58;;;;;;;16.93;80.00;97362.22;4959917;28;20149;-66
2023/06/07 07:36:16;;;;;;;5.57;3.50;;;;;;;17.01;80.46;97356.91;4966683;28;20046;-66
2023/06/07 07:38:45;;;;;;;4.60;3.35;;;;;;;17.03;79.85;97360.16;4957064;28;20053;-66
2023/06/07 07:41:14;;;;;;;5.40;3.72;;;;;;;17.10;79.59;97353.53;4959743;28;20428;-66
2023/06/07 07:43:40;;;;;;;5.93;3.67;;;;;;;17.17;79.72;97362.16;4957973;28;20047;-66
2023/06/07 07:46:07;;;;;;;6.78;3.63;;;;;;;17.22;79.60;97356.66;4960977;28;20047;-66
2023/06/07 07:48:33;;;;;;;6.70;4.07;;;;;;;17.37;78.27;97352.88;4964371;28;20035;-66
2023/06/07 07:51:02;;;;;;;7.03;4.18;;;;;;;17.43;77.59;97353.56;4959084;28;20126;-66
2023/06/07 07:53:28;;;;;;;4.60;3.50;;;;;;;17.50;78.17;97356.75;4955684;28;20047;-66
2023/06/07 07:55:55;;;;;;;5.43;3.75;;;;;;;17.61;77.46;97360.16;4959631;28;20606;-66
2023/06/07 07:58:22;;;;;;;5.88;4.40;;;;;;;17.63;76.56;97360.69;4955530;28;20130;-66
2023/06/07 08:00:48;;;;;;;7.20;4.25;;;;;;;17.57;77.84;97355.59;4955471;28;20039;-66
2023/06/07 08:03:15;;;;;;;6.25;3.83;;;;;;;17.68;77.38;97351.56;4962291;28;20536;-66
2023/06/07 08:05:42;;;;;;;5.53;3.58;;;;;;;17.84;77.26;97352.09;4956733;28;20602;-66
2023/06/07 08:08:08;;;;;;;5.78;4.22;;;;;;;17.97;75.92;97350.53;4962782;28;20050;-66
2023/06/07 08:10:36;;;;;;;6.40;4.00;;;;;;;17.85;75.13;97351.00;4963763;28;20042;-66
2023/06/07 08:13:03;;;;;;;5.00;3.72;;;;;;;17.89;75.18;97349.28;4960204;28;20047;-66
2023/06/07 08:15:31;;;;;;;5.30;3.63;;;;;;;18.20;75.91;97348.75;4965125;28;20031;-66
2023/06/07 08:17:58;;;;;;;6.00;3.45;;;;;;;18.35;73.97;97354.25;4959901;28;20048;-66
2023/06/07 08:20:24;;;;;;;6.15;3.80;;;;;;;18.29;73.56;97357.09;4958376;28;20133;-66
2023/06/07 08:22:51;;;;;;;5.80;3.90;;;;;;;18.28;73.44;97352.72;4965853;28;20532;-66
2023/06/07 08:25:17;;;;;;;6.63;3.05;;;;;;;18.62;72.63;97347.16;4951222;28;20031;-66
2023/06/07 08:27:45;;;;;;;4.97;3.00;;;;;;;18.61;71.11;97360.03;4962238;28;20098;-66
2023/06/07 08:30:12;;;;;;;4.07;2.63;;;;;;;18.59;68.79;97359.53;4960313;28;20071;-66
2023/06/07 08:32:39;;;;;;;5.68;2.60;;;;;;;18.60;69.98;97358.41;4964090;28;20054;-66
2023/06/07 08:35:07;;;;;;;4.68;2.33;;;;;;;18.56;67.28;97357.41;4955843;28;20094;-65
2023/06/07 08:37:34;;;;;;;6.85;2.28;;;;;;;18.61;69.49;97351.00;4955997;28;20125;-65
2023/06/07 08:40:01;;;;;;;5.18;2.50;;;;;;;18.65;67.64;97361.03;4958381;28;20110;-65
2023/06/07 08:42:28;;;;;;;5.15;2.60;;;;;;;18.85;67.41;97348.88;4960284;28;20043;-65
2023/06/07 08:44:55;;;;;;;4.82;2.85;;;;;;;18.84;68.17;97358.19;4961564;28;20300;-65
2023/06/07 08:47:23;;;;;;;3.42;2.30;;;;;;;19.00;68.41;97355.13;4960038;28;20043;-65
2023/06/07 08:49:55;;;;;;;4.32;2.13;;;;;;;19.12;66.26;97362.06;4958396;28;20077;-66
2023/06/07 08:52:25;;;;;;;4.97;2.20;;;;;;;19.04;66.10;97358.06;4955025;28;20680;-66
2023/06/07 08:54:59;;;;;;;5.15;2.20;;;;;;;19.25;66.94;97350.22;4953125;28;20057;-65
2023/06/07 08:57:28;;;;;;;3.90;2.10;;;;;;;19.38;67.42;97355.97;4964043;28;20133;-65
2023/06/07 08:59:55;;;;;;;3.38;1.98;;;;;;;19.47;65.85;97354.09;4955694;28;20074;-66
2023/06/07 09:02:24;;;;;;;4.07;2.28;;;;;;;19.35;65.26;97351.91;4950240;28;20553;-66
2023/06/07 09:04:51;;;;;;;4.22;2.35;;;;;;;19.29;65.50;97351.22;4955031;28;20042;-66
2023/06/07 09:07:17;;;;;;;3.47;1.70;;;;;;;19.41;63.98;97353.41;4958387;28;20038;-66
2023/06/07 09:09:44;;;;;;;3.63;1.67;;;;;;;19.39;64.88;97355.66;4962973;28;20706;-66
2023/06/07 09:12:11;;;;;;;2.95;1.88;;;;;;;19.42;64.43;97362.47;4951267;28;20047;-66
2023/06/07 09:14:38;;;;;;;3.10;1.85;;;;;;;19.61;65.68;97363.09;4952137;28;20114;-65
2023/06/07 09:17:04;;;;;;;3.13;1.70;;;;;;;19.75;65.24;97363.03;4956678;28;20051;-66
2023/06/07 09:19:41;;;;;;;4.03;2.20;;;;;;;20.04;62.93;97362.94;4955189;28;20042;-66
2023/06/07 09:22:14;;;;;;;3.20;1.95;;;;;;;19.97;63.48;97366.09;4954721;28;20592;-66
2023/06/07 09:24:42;;;;;;;3.25;2.00;;;;;;;20.23;62.08;97359.94;4962528;28;20109;-65
2023/06/07 09:27:12;;;;;;;5.53;1.70;;;;;;;20.54;62.28;97362.66;4961600;28;20047;-66
2023/06/07 09:29:41;;;;;;;3.15;1.33;;;;;;;20.76;57.57;97368.38;4953485;28;20054;-65
2023/06/07 09:32:26;;;;;;;4.55;1.50;;;;;;;20.12;59.54;97362.97;4960625;28;20053;-65
2023/06/07 09:35:11;;;;;;;3.33;1.40;;;;;;;20.46;57.57;97359.88;4953602;28;20055;-64
2023/06/07 09:37:43;;;;;;;2.15;1.30;;;;;;;20.76;58.65;97365.63;4959548;28;20049;-65
2023/06/07 09:40:11;;;;;;;5.75;1.67;;;;;;;20.60;59.64;97366.06;4958049;28;20050;-65
2023/06/07 09:42:38;;;;;;;7.38;1.63;;;;;;;20.56;59.06;97364.28;4956641;28;20097;-65
2023/06/07 09:45:14;;;;;;;4.93;1.63;;;;;;;20.95;56.95;97359.06;4960274;28;20561;-65
2023/06/07 09:47:42;;;;;;;2.72;1.20;;;;;;;20.85;56.86;97352.72;4958285;28;20102;-64
2023/06/07 09:50:11;;;;;;;3.97;2.15;;;;;;;21.14;57.18;97354.09;4958604;28;20183;-65
2023/06/07 09:52:38;;;;;;;3.03;1.50;;;;;;;21.23;56.88;97356.03;4954113;28;20047;-67
2023/06/07 09:55:25;;;;;;;2.13;1.23;;;;;;;21.46;56.08;97358.63;4959405;28;20271;-65
2023/06/07 09:57:51;;;;;;;4.25;2.05;;;;;;;21.54;57.88;97344.88;4957601;28;20054;-65
2023/06/07 10:00:19;;;;;;;3.95;1.90;;;;;;;21.47;57.40;97355.56;4961148;28;20093;-65
2023/06/07 10:02:47;;;;;;;3.15;1.88;;;;;;;21.29;58.01;97355.56;4951832;28;20319;-65
2023/06/07 10:05:21;;;;;;;3.00;2.00;;;;;;;21.22;57.66;97359.94;4955023;28;20106;-65
2023/06/07 10:07:50;;;;;;;3.92;1.70;;;;;;;21.12;58.37;97350.03;4958062;28;20094;-65
2023/06/07 10:10:21;;;;;;;8.82;2.80;;;;;;;20.92;58.69;97350.34;4958381;28;20043;-65
2023/06/07 10:12:51;;;;;;;2.85;1.73;;;;;;;20.86;57.84;97346.06;4956549;28;20090;-65
2023/06/07 10:15:23;;;;;;;4.03;2.30;;;;;;;20.79;58.82;97351.25;4957520;28;20133;-65
2023/06/07 10:17:57;;;;;;;2.78;1.80;;;;;;;20.95;58.07;97343.38;4957276;28;20050;-65
2023/06/07 10:20:28;;;;;;;4.60;1.90;;;;;;;21.14;57.20;97345.84;4957553;28;20906;-65
2023/06/07 10:23:03;;;;;;;2.30;1.40;;;;;;;21.27;55.97;97348.75;4960161;28;20050;-65
2023/06/07 10:25:34;;;;;;;2.38;1.55;;;;;;;21.26;55.39;97344.38;4955906;28;20034;-65
2023/06/07 10:28:11;;;;;;;3.97;1.80;;;;;;;21.28;54.60;97342.94;4960619;28;20043;-65
2023/06/07 10:30:44;;;;;;;3.58;1.52;;;;;;;21.33;54.08;97341.94;4948393;28;20043;-65
2023/06/07 10:33:12;;;;;;;2.85;1.77;;;;;;;20.70;55.52;97331.97;4961288;28;20502;-66
2023/06/07 10:35:39;;;;;;;2.85;1.50;;;;;;;21.11;53.22;97338.22;4958095;28;20039;-66
2023/06/07 10:38:06;;;;;;;2.78;1.60;;;;;;;21.28;52.87;97331.91;4961321;28;20593;-66
2023/06/07 10:40:33;;;;;;;2.20;1.20;;;;;;;21.63;52.31;97330.28;4953747;28;20118;-66
2023/06/07 10:43:01;;;;;;;3.13;1.70;;;;;;;21.61;53.29;97332.53;4962754;28;20085;-66
2023/06/07 10:45:27;;;;;;;2.58;1.70;;;;;;;21.84;52.80;97324.91;4979036;28;20051;-66
2023/06/07 10:47:54;;;;;;;3.10;1.40;;;;;;;22.02;52.30;97320.16;4964411;28;20074;-66
2023/06/07 10:50:27;;;;;;;3.05;1.60;;;;;;;22.25;49.86;97321.88;4957131;28;20521;-66
2023/06/07 10:52:55;;;;;;;2.65;1.40;;;;;;;21.76;51.00;97325.72;4956259;28;20058;-66
2023/06/07 10:55:33;;;;;;;2.88;1.42;;;;;;;21.80;52.17;97326.69;4958670;28;20046;-66
2023/06/07 10:58:00;;;;;;;2.75;1.60;;;;;;;21.78;53.00;97320.72;4958463;28;20534;-66
2023/06/07 11:00:29;;;;;;;3.05;1.48;;;;;;;21.91;52.28;97327.16;4958416;28;20529;-66
2023/06/07 11:03:05;;;;;;;3.42;1.60;;;;;;;21.82;52.18;97332.72;4965692;28;20047;-66
2023/06/07 11:06:05;;;;;;;2.40;1.30;;;;;;;21.71;51.79;97321.19;4962384;28;20054;-66
2023/06/07 11:08:36;;;;;;;3.10;1.42;;;;;;;21.65;51.61;97317.78;4959940;28;20126;-66
2023/06/07 11:11:04;;;;;;;2.60;1.30;;;;;;;21.87;49.38;97328.94;4959939;28;20051;-66
2023/06/07 11:13:43;;;;;;;2.90;1.63;;;;;;;21.94;49.42;97321.00;4951435;28;20047;-66
2023/06/07 11:16:25;;;;;;;3.40;1.40;;;;;;;22.11;49.63;97325.63;4961795;28;20049;-66
2023/06/07 11:18:54;;;;;;;2.75;1.40;;;;;;;22.17;50.74;97313.31;4962645;28;20121;-66
2023/06/07 11:21:26;;;;;;;2.55;1.48;;;;;;;22.23;50.64;97311.19;4963127;28;20115;-66
2023/06/07 11:24:13;;;;;;;2.50;1.40;;;;;;;22.31;50.06;97309.50;4956173;28;20069;-66
2023/06/07 11:26:40;;;;;;;3.25;1.50;;;;;;;22.07;50.66;97305.38;4954403;28;20039;-66
2023/06/07 11:29:10;;;;;;;4.00;1.77;;;;;;;21.95;50.02;97311.59;4961005;28;20047;-65
2023/06/07 11:31:37;;;;;;;4.90;1.70;;;;;;;22.15;49.95;97301.78;4961256;28;20078;-66
2023/06/07 11:34:04;;;;;;;4.18;1.58;;;;;;;22.45;49.46;97312.06;4961406;28;20783;-66
2023/06/07 11:36:31;;;;;;;3.42;2.00;;;;;;;22.21;49.30;97305.97;4961917;28;20506;-66